createdAt,value
2014-11-19T16:02:01.531Z,43.18
2014-11-19T16:03:06.158Z,43.34
2014-11-19T16:04:10.770Z,42.75
2014-11-19T16:05:15.397Z,42.46
2014-11-19T16:06:20.025Z,42.15
2014-11-19T16:07:24.653Z,41.55
2014-11-19T16:08:29.264Z,41.01
2014-11-19T16:09:33.924Z,40.64
2014-11-19T16:10:38.880Z,40.07
2014-11-19T16:11:43.507Z,39.66
2014-11-19T16:12:48.119Z,37.78
2014-11-19T16:13:52.746Z,38.12
2014-11-19T16:14:57.373Z,38.47
2014-11-19T16:16:02.001Z,38.54
2014-11-19T16:17:06.721Z,38.55
2014-11-19T16:18:11.365Z,38.49
2014-11-19T16:19:15.992Z,38.3
2014-11-19T16:20:20.619Z,38.34
2014-11-19T16:21:25.263Z,37.68
2014-11-19T16:22:29.890Z,37.12
2014-11-19T16:23:34.534Z,36.77
2014-11-19T16:24:39.161Z,36.38
2014-11-19T16:25:43.805Z,35.96
2014-11-19T16:26:48.416Z,36.08
2014-11-19T16:27:53.044Z,35.88
2014-11-19T16:28:57.671Z,35.29
2014-11-19T16:30:02.423Z,35.39
2014-11-19T16:31:07.051Z,35.48
2014-11-19T16:32:11.678Z,34.92
2014-11-19T16:33:16.305Z,34.7
2014-11-19T16:34:20.949Z,34.12
2014-11-19T16:35:25.592Z,34.32
2014-11-19T16:36:30.219Z,34.33
2014-11-19T16:37:34.849Z,34.34
2014-11-19T16:38:39.507Z,34.78
2014-11-19T16:39:44.134Z,34.71
2014-11-19T16:40:48.746Z,35.3
2014-11-19T16:41:53.373Z,35.57
2014-11-19T16:42:58.095Z,35.58
2014-11-19T16:44:02.862Z,35.11
2014-11-19T16:45:07.504Z,35.64
2014-11-19T16:46:12.132Z,35.78
2014-11-19T16:47:16.776Z,35.67
2014-11-19T16:48:21.403Z,35.37
2014-11-19T16:49:26.045Z,34.91
2014-11-19T16:50:30.673Z,34.51
2014-11-19T16:51:35.301Z,34.52
2014-11-19T16:52:39.929Z,34.14
2014-11-19T16:53:44.573Z,34.01
2014-11-19T16:54:49.216Z,33.98
2014-11-19T16:55:53.843Z,33.85
2014-11-19T16:56:58.532Z,33.78
2014-11-19T16:58:03.332Z,33.78
2014-11-19T16:59:07.959Z,33.78
2014-11-19T17:00:12.603Z,33.71
2014-11-19T17:01:17.245Z,33.78
2014-11-19T17:02:21.872Z,33.68
2014-11-19T17:03:26.515Z,33.58
2014-11-19T17:04:31.143Z,33.64
2014-11-19T17:05:35.773Z,33.61
2014-11-19T17:06:40.415Z,33.64
2014-11-19T17:07:45.042Z,33.65
2014-11-19T17:08:49.701Z,33.5
2014-11-19T17:09:54.328Z,33.58
2014-11-19T17:10:58.956Z,33.46
2014-11-19T17:12:03.583Z,33.65
2014-11-19T17:13:08.211Z,33.38
2014-11-19T17:14:12.852Z,33.44
2014-11-19T17:15:17.465Z,33.44
2014-11-19T17:16:22.107Z,33.43
2014-11-19T17:17:26.734Z,33.4
2014-11-19T17:18:31.362Z,33.43
2014-11-19T17:19:36.007Z,33.36
2014-11-19T17:20:40.635Z,33.44
2014-11-19T17:21:45.262Z,33.31
2014-11-19T17:22:49.889Z,33.31
2014-11-19T17:23:54.611Z,33.23
2014-11-19T17:24:59.253Z,33.4
2014-11-19T17:26:03.880Z,33.43
2014-11-19T17:27:08.508Z,33.58
2014-11-19T17:28:13.135Z,33.58
2014-11-19T17:29:17.778Z,33.5
2014-11-19T17:30:22.405Z,33.43
2014-11-19T17:31:27.033Z,33.47
2014-11-19T17:32:31.660Z,33.39
2014-11-19T17:33:36.290Z,33.57
2014-11-19T17:34:40.917Z,33.43
2014-11-19T17:35:45.545Z,33.36
2014-11-19T17:36:50.172Z,33.4
2014-11-19T17:37:54.799Z,33.5
2014-11-19T17:38:59.427Z,33.47
2014-11-19T17:40:04.070Z,33.42
2014-11-19T17:41:08.697Z,33.46
2014-11-19T17:42:13.324Z,33.5
2014-11-19T17:43:17.936Z,33.53
2014-11-19T17:44:22.579Z,33.53
2014-11-19T17:45:27.221Z,33.53
2014-11-19T17:46:31.849Z,33.43
2014-11-19T17:47:36.478Z,33.57
2014-11-19T17:48:41.105Z,33.43
2014-11-19T17:49:45.733Z,33.36
2014-11-19T17:50:50.360Z,33.29
2014-11-19T17:51:55.019Z,33.46
2014-11-19T17:52:59.647Z,33.46
2014-11-19T17:54:04.274Z,33.56
2014-11-19T17:55:08.901Z,33.43
2014-11-19T17:56:13.824Z,33.53
2014-11-19T17:57:19.451Z,33.5
2014-11-19T17:58:24.079Z,33.63
2014-11-19T17:59:28.722Z,33.42
2014-11-19T18:00:33.366Z,33.46
2014-11-19T18:01:37.996Z,33.42
2014-11-19T18:02:42.622Z,33.53
2014-11-19T18:03:47.250Z,33.43
2014-11-19T18:04:51.877Z,33.4
2014-11-19T18:05:56.505Z,33.29
2014-11-19T18:07:01.163Z,33.43
2014-11-19T18:08:05.821Z,33.35
2014-11-19T18:09:10.465Z,33.56
2014-11-19T18:10:15.092Z,33.56
2014-11-19T18:11:19.719Z,33.69
2014-11-19T18:12:24.361Z,33.56
2014-11-19T18:13:28.988Z,33.58
2014-11-19T18:14:33.616Z,33.69
2014-11-19T18:15:38.246Z,33.62
2014-11-19T18:16:42.873Z,33.44
2014-11-19T18:17:47.813Z,33.36
2014-11-19T18:18:52.752Z,33.36
2014-11-19T18:19:57.380Z,33.49
2014-11-19T18:21:02.305Z,33.43
2014-11-19T18:22:06.947Z,33.39
2014-11-19T18:23:11.575Z,33.5
2014-11-19T18:24:16.202Z,33.43
2014-11-19T18:25:20.829Z,33.52
2014-11-19T18:26:25.472Z,33.37
2014-11-19T18:27:30.100Z,33.36
2014-11-19T18:28:34.728Z,33.43
2014-11-19T18:29:39.357Z,33.7
2014-11-19T18:30:43.984Z,33.66
2014-11-19T18:31:48.611Z,33.49
2014-11-19T18:32:53.550Z,33.42
2014-11-19T18:33:58.256Z,33.63
2014-11-19T18:35:02.930Z,33.56
2014-11-19T18:36:07.573Z,33.49
2014-11-19T18:37:12.201Z,33.49
2014-11-19T18:38:16.828Z,33.43
2014-11-19T18:39:21.470Z,33.45
2014-11-19T18:40:26.098Z,33.56
2014-11-19T18:41:30.725Z,33.42
2014-11-19T18:42:35.352Z,33.5
2014-11-19T18:43:39.982Z,33.39
2014-11-19T18:44:44.625Z,33.42
2014-11-19T18:45:49.253Z,33.46
2014-11-19T18:46:53.896Z,33.49
2014-11-19T18:47:58.524Z,33.49
2014-11-19T18:49:03.182Z,33.59
2014-11-19T18:50:07.809Z,33.55
2014-11-19T18:51:12.437Z,33.56
2014-11-19T18:52:17.079Z,33.5
2014-11-19T18:53:21.722Z,33.43
2014-11-19T18:54:26.365Z,33.36
2014-11-19T18:55:31.007Z,33.42
2014-11-19T18:56:35.620Z,33.3
2014-11-19T18:57:40.249Z,33.36
2014-11-19T18:58:44.877Z,33.36
2014-11-19T18:59:49.504Z,33.46
2014-11-19T19:00:54.131Z,33.36
2014-11-19T19:01:58.759Z,33.42
2014-11-19T19:03:03.401Z,33.39
2014-11-19T19:04:08.028Z,33.36
2014-11-19T19:05:12.656Z,33.39
2014-11-19T19:06:17.283Z,33.36
2014-11-19T19:07:21.910Z,33.36
2014-11-19T19:08:26.538Z,33.5
2014-11-19T19:09:31.165Z,33.42
2014-11-19T19:10:35.792Z,33.35
2014-11-19T19:11:40.438Z,33.42
2014-11-19T19:12:45.065Z,33.49
2014-11-19T19:13:49.692Z,33.35
2014-11-19T19:14:54.319Z,33.42
2014-11-19T19:15:58.947Z,33.42
2014-11-19T19:17:03.590Z,33.49
2014-11-19T19:18:08.218Z,33.42
2014-11-19T19:19:12.859Z,33.49
2014-11-19T19:20:17.487Z,33.36
2014-11-19T19:21:22.115Z,33.4
2014-11-19T19:22:26.741Z,33.49
2014-11-19T19:23:31.369Z,33.62
2014-11-19T19:24:35.996Z,33.4
2014-11-19T19:25:40.626Z,33.21
2014-11-19T19:26:45.253Z,33.14
2014-11-19T19:27:49.881Z,33.48
2014-11-19T19:28:54.508Z,33.55
2014-11-19T19:29:59.151Z,33.48
2014-11-19T19:31:03.779Z,33.48
2014-11-19T19:32:08.406Z,33.42
2014-11-19T19:33:13.048Z,33.49
2014-11-19T19:34:17.675Z,33.35
2014-11-19T19:35:22.303Z,33.35
2014-11-19T19:36:26.930Z,33.42
2014-11-19T19:37:31.557Z,33.35
2014-11-19T19:38:36.185Z,33.49
2014-11-19T19:39:40.815Z,33.22
2014-11-19T19:40:45.457Z,33.15
2014-11-19T19:41:50.397Z,33.22
2014-11-19T19:42:55.103Z,33.15
2014-11-19T19:43:59.730Z,33.15
2014-11-19T19:45:04.358Z,33.35
2014-11-19T19:46:08.985Z,33.21
2014-11-19T19:47:13.612Z,33.15
2014-11-19T19:48:18.240Z,33.28
2014-11-19T19:49:22.882Z,33.34
2014-11-19T19:50:27.510Z,33.35
2014-11-19T19:51:32.153Z,33.21
2014-11-19T19:52:36.780Z,33.41
2014-11-19T19:53:41.409Z,33.28
2014-11-19T19:54:46.037Z,33.27
2014-11-19T19:55:50.665Z,33.38
2014-11-19T19:56:55.292Z,33.24
2014-11-19T19:57:59.919Z,33.28
2014-11-19T19:59:04.562Z,33.28
2014-11-19T20:00:09.189Z,33.34
2014-11-19T20:01:13.816Z,33.21
2014-11-19T20:02:18.740Z,33.28
2014-11-19T20:03:23.367Z,33.14
2014-11-19T20:04:27.995Z,33.27
2014-11-19T20:05:32.622Z,33.24
2014-11-19T20:06:37.249Z,33.31
2014-11-19T20:07:41.879Z,33.21
2014-11-19T20:08:46.506Z,33.28
2014-11-19T20:09:51.149Z,33.34
2014-11-19T20:10:55.855Z,33.41
2014-11-19T20:12:00.482Z,33.28
2014-11-19T20:13:05.109Z,33.31
2014-11-19T20:14:09.736Z,33.28
2014-11-19T20:15:14.379Z,33.21
2014-11-19T20:16:19.007Z,33.22
2014-11-19T20:17:23.635Z,33.27
2014-11-19T20:18:28.261Z,33.28
2014-11-19T20:19:32.920Z,33.21
2014-11-19T20:20:37.531Z,33.18
2014-11-19T20:21:42.177Z,33.27
2014-11-19T20:22:46.804Z,33.34
2014-11-19T20:23:51.526Z,33.18
2014-11-19T20:24:56.153Z,33.15
2014-11-19T20:26:00.795Z,33.21
2014-11-19T20:27:05.439Z,33.24
2014-11-19T20:28:10.066Z,33.24
2014-11-19T20:29:14.693Z,33.28
2014-11-19T20:30:19.336Z,33.18
2014-11-19T20:31:23.964Z,33.41
2014-11-19T20:32:28.591Z,33.14
2014-11-19T20:33:33.218Z,33.14
2014-11-19T20:34:37.861Z,33.14
2014-11-19T20:35:42.490Z,33.08
2014-11-19T20:36:47.117Z,33.07
2014-11-19T20:37:51.745Z,33.21
2014-11-19T20:38:56.372Z,33.14
2014-11-19T20:40:01.000Z,32.98
2014-11-19T20:41:05.627Z,33.2
2014-11-19T20:42:10.270Z,33.11
2014-11-19T20:43:14.897Z,33.11
2014-11-19T20:44:19.525Z,33.11
2014-11-19T20:45:24.168Z,33
2014-11-19T20:46:28.795Z,33.14
2014-11-19T20:47:33.423Z,33.21
2014-11-19T20:48:38.050Z,33.07
2014-11-19T20:49:42.678Z,33.14
2014-11-19T20:50:47.306Z,33.07
2014-11-19T20:51:51.934Z,33.14
2014-11-19T20:52:56.562Z,33.14
2014-11-19T20:54:01.189Z,33.14
2014-11-19T20:55:05.816Z,33.24
2014-11-19T20:56:10.458Z,33.23
2014-11-19T20:57:15.398Z,33.17
2014-11-19T20:58:20.010Z,33.27
2014-11-19T20:59:24.637Z,33.21
2014-11-19T21:00:29.264Z,33.27
2014-11-19T21:01:33.892Z,33.23
2014-11-19T21:02:38.535Z,33.21
2014-11-19T21:03:43.162Z,33.1
2014-11-19T21:04:47.823Z,33.08
2014-11-19T21:05:52.747Z,32.94
2014-11-19T21:06:57.375Z,33.14
2014-11-19T21:08:02.096Z,33.13
2014-11-19T21:09:06.723Z,33.24
2014-11-19T21:10:11.350Z,33.14
2014-11-19T21:11:16.306Z,33.14
2014-11-19T21:12:20.933Z,33.07
2014-11-19T21:13:25.638Z,33.1
2014-11-19T21:14:30.266Z,33.2
2014-11-19T21:15:34.908Z,33.24
2014-11-19T21:16:39.536Z,33.3
2014-11-19T21:17:45.150Z,33.11
2014-11-19T21:18:49.777Z,32.97
2014-11-19T21:19:54.405Z,32.93
2014-11-19T21:20:59.032Z,33.07
2014-11-19T21:22:03.660Z,33
2014-11-19T21:23:08.286Z,33.11
2014-11-19T21:24:12.914Z,33.1
2014-11-19T21:25:17.541Z,33.07
2014-11-19T21:26:22.168Z,32.99
2014-11-19T21:27:26.796Z,33.07
2014-11-19T21:28:31.423Z,33.27
2014-11-19T21:29:36.051Z,33.13
2014-11-19T21:30:40.678Z,33.07
2014-11-19T21:31:45.308Z,32.93
2014-11-19T21:32:49.950Z,33.14
2014-11-19T21:33:54.577Z,33.07
2014-11-19T21:34:59.220Z,33.01
2014-11-19T21:36:03.848Z,33.08
2014-11-19T21:37:08.458Z,33.13
2014-11-19T21:38:13.086Z,33.16
2014-11-19T21:39:17.730Z,33.2
2014-11-19T21:40:22.357Z,33.14
2014-11-19T21:41:26.984Z,32.94
2014-11-19T21:42:31.611Z,32.86
2014-11-19T21:43:35.552Z,32.87
2014-11-19T21:44:40.179Z,33
2014-11-19T21:45:44.807Z,33.13
2014-11-19T21:46:49.436Z,33.13
2014-11-19T21:47:54.064Z,33.14
2014-11-19T21:48:58.862Z,33.23
2014-11-19T21:50:03.521Z,33.3
2014-11-19T21:51:08.149Z,33.27
2014-11-19T21:52:12.775Z,32.97
2014-11-19T21:53:17.403Z,33.06
2014-11-19T21:54:22.077Z,33
2014-11-19T21:55:26.705Z,33.2
2014-11-19T21:56:31.332Z,33.23
2014-11-19T21:57:35.271Z,33
2014-11-19T21:58:39.898Z,33.09
2014-11-19T21:59:44.525Z,33.07
2014-11-19T22:00:49.155Z,32.87
2014-11-19T22:01:53.830Z,32.93
2014-11-19T22:02:58.925Z,32.93
2014-11-19T22:04:03.553Z,33.06
2014-11-19T22:05:08.195Z,33.01
2014-11-19T22:06:12.823Z,33
2014-11-19T22:07:17.450Z,33.06
2014-11-19T22:08:23.374Z,33.14
2014-11-19T22:09:28.002Z,33.07
2014-11-19T22:10:32.629Z,32.93
2014-11-19T22:11:37.256Z,32.99
2014-11-19T22:12:41.884Z,33.27
2014-11-19T22:13:46.513Z,33.07
2014-11-19T22:14:51.157Z,33.13
2014-11-19T22:15:55.784Z,33.03
2014-11-19T22:17:00.412Z,33.19
2014-11-19T22:18:05.039Z,33.23
2014-11-19T22:19:09.665Z,33.07
2014-11-19T22:20:14.308Z,33.07
2014-11-19T22:21:18.951Z,33.06
2014-11-19T22:22:23.578Z,33.11
2014-11-19T22:23:28.206Z,33
2014-11-19T22:24:33.817Z,32.97
2014-11-19T22:25:38.460Z,33.07
2014-11-19T22:26:43.088Z,33.06
2014-11-19T22:27:47.718Z,33.1
2014-11-19T22:28:52.344Z,33
2014-11-19T22:29:56.956Z,33.03
2014-11-19T22:31:01.584Z,32.97
2014-11-19T22:32:06.211Z,32.86
2014-11-19T22:33:10.838Z,32.86
2014-11-19T22:34:15.465Z,32.93
2014-11-19T22:35:20.093Z,33.13
2014-11-19T22:36:24.736Z,33
2014-11-19T22:37:29.364Z,33.06
2014-11-19T22:38:33.991Z,32.97
2014-11-19T22:39:38.618Z,33.09
2014-11-19T22:40:43.245Z,33.29
2014-11-19T22:41:47.875Z,33.06
2014-11-19T22:42:52.502Z,33.1
2014-11-19T22:43:57.152Z,32.93
2014-11-19T22:45:02.070Z,32.93
2014-11-19T22:46:06.707Z,32.99
2014-11-19T22:47:11.344Z,32.92
2014-11-19T22:48:15.982Z,33.12
2014-11-19T22:49:20.615Z,32.93
2014-11-19T22:50:25.246Z,32.99
2014-11-19T22:51:29.877Z,33.06
2014-11-19T22:52:34.523Z,33.09
2014-11-19T22:53:39.185Z,32.99
2014-11-19T22:54:43.814Z,32.93
2014-11-19T22:55:48.462Z,33.02
2014-11-19T22:56:53.091Z,33.06
2014-11-19T22:57:57.720Z,33.06
2014-11-19T22:59:02.380Z,33.12
2014-11-19T23:00:07.008Z,33.33
2014-11-19T23:01:11.636Z,33.06
2014-11-19T23:02:16.263Z,32.99
2014-11-19T23:03:20.891Z,33.26
2014-11-19T23:04:25.519Z,33.19
2014-11-19T23:05:30.146Z,33.26
2014-11-19T23:06:34.773Z,33.16
2014-11-19T23:07:39.401Z,33.13
2014-11-19T23:08:44.029Z,33.06
2014-11-19T23:09:48.659Z,33.33
2014-11-19T23:10:53.287Z,33.13
2014-11-19T23:11:57.913Z,33.2
2014-11-19T23:13:02.556Z,33.1
2014-11-19T23:14:07.183Z,33.06
2014-11-19T23:15:11.811Z,33.16
2014-11-19T23:16:16.438Z,33.27
2014-11-19T23:17:21.065Z,32.96
2014-11-19T23:18:25.692Z,33.06
2014-11-19T23:19:30.320Z,32.94
2014-11-19T23:20:34.947Z,32.92
2014-11-19T23:21:39.574Z,33.03
2014-11-19T23:22:44.218Z,33.02
2014-11-19T23:23:48.863Z,32.96
2014-11-19T23:24:53.491Z,33.06
2014-11-19T23:25:58.118Z,32.92
2014-11-19T23:27:02.745Z,32.99
2014-11-19T23:28:07.372Z,32.99
2014-11-19T23:29:12.000Z,32.85
2014-11-19T23:30:16.628Z,32.93
2014-11-19T23:31:21.254Z,32.73
2014-11-19T23:32:25.882Z,32.86
2014-11-19T23:33:30.509Z,33.03
2014-11-19T23:34:35.136Z,33.06
2014-11-19T23:35:39.764Z,32.99
2014-11-19T23:36:44.391Z,33.06
2014-11-19T23:37:49.020Z,32.92
2014-11-19T23:38:53.648Z,32.99
2014-11-19T23:39:58.291Z,33.05
2014-11-19T23:41:02.918Z,33.12
2014-11-19T23:42:07.544Z,33.02
2014-11-19T23:43:12.188Z,32.92
2014-11-19T23:44:16.830Z,33.06
2014-11-19T23:45:21.458Z,33.06
2014-11-19T23:46:25.398Z,33.12
2014-11-19T23:47:30.103Z,32.96
2014-11-19T23:48:34.965Z,32.86
2014-11-19T23:49:39.624Z,32.72
2014-11-19T23:50:44.267Z,32.65
2014-11-19T23:51:48.894Z,33.06
2014-11-19T23:52:53.523Z,33.06
2014-11-19T23:53:58.151Z,33.13
2014-11-19T23:55:02.794Z,32.93
2014-11-19T23:56:07.437Z,32.82
2014-11-19T23:57:12.065Z,32.92
2014-11-19T23:58:16.707Z,33.12
2014-11-19T23:59:21.334Z,33.19
